Terminal Aerodrome Forecast
Issued by NWS Riverton, WY

Home | Current Version | Previous Version | Text Only | Print | Product List | Glossary On
Versions: 1 2 3 4 5 6 7 8 9 10 11 12 13 14 15
000
FTUS45 KRIW 250500
TAFRIW
TAF
KRIW 250526Z 2506/2606 32008KT P6SM FEW120 BKN200
     FM251400 VRB05KT P6SM SCT120 BKN200
     FM252000 23012G18KT P6SM SCT110 BKN200
     FM260200 29009KT P6SM SCT120 BKN200=

USA.gov is the U.S. government's official web portal to all federal, state and local government web resources and services.